sensor_id;sensor_type;location;lat;lon;timestamp;temperature;humidity
21318;DHT22;10818;50.830;6.524;2022-10-16T00:01:41;14.30;99.90
21318;DHT22;10818;50.830;6.524;2022-10-16T00:06:41;14.10;99.90
21318;DHT22;10818;50.830;6.524;2022-10-16T00:11:42;14.10;99.90
21318;DHT22;10818;50.830;6.524;2022-10-16T00:16:42;13.90;99.90
21318;DHT22;10818;50.830;6.524;2022-10-16T00:21:43;13.90;99.90
21318;DHT22;10818;50.830;6.524;2022-10-16T00:26:43;13.70;99.90
21318;DHT22;10818;50.830;6.524;2022-10-16T00:31:44;13.60;99.90
21318;DHT22;10818;50.830;6.524;2022-10-16T00:36:44;13.60;99.90
21318;DHT22;10818;50.830;6.524;2022-10-16T00:41:45;13.50;99.90
21318;DHT22;10818;50.830;6.524;2022-10-16T00:46:45;13.40;99.90
21318;DHT22;10818;50.830;6.524;2022-10-16T00:51:47;13.30;99.90
21318;DHT22;10818;50.830;6.524;2022-10-16T00:56:47;13.30;99.90
21318;DHT22;10818;50.830;6.524;2022-10-16T01:01:48;13.30;99.90
21318;DHT22;10818;50.830;6.524;2022-10-16T01:07:02;13.20;99.90
21318;DHT22;10818;50.830;6.524;2022-10-16T01:12:12;13.20;99.90
21318;DHT22;10818;50.830;6.524;2022-10-16T01:22:15;13.10;99.90
21318;DHT22;10818;50.830;6.524;2022-10-16T01:27:25;13.00;99.90
21318;DHT22;10818;50.830;6.524;2022-10-16T01:32:37;13.00;99.90
21318;DHT22;10818;50.830;6.524;2022-10-16T01:37:40;13.10;99.90
21318;DHT22;10818;50.830;6.524;2022-10-16T01:42:48;13.10;99.90
21318;DHT22;10818;50.830;6.524;2022-10-16T01:47:50;13.30;99.90
21318;DHT22;10818;50.830;6.524;2022-10-16T01:52:52;13.30;99.90
21318;DHT22;10818;50.830;6.524;2022-10-16T01:57:54;13.40;99.90
21318;DHT22;10818;50.830;6.524;2022-10-16T02:02:55;13.50;99.90
21318;DHT22;10818;50.830;6.524;2022-10-16T02:07:56;13.50;99.90
21318;DHT22;10818;50.830;6.524;2022-10-16T02:12:59;13.70;99.90
21318;DHT22;10818;50.830;6.524;2022-10-16T02:18:01;13.80;99.90
21318;DHT22;10818;50.830;6.524;2022-10-16T02:23:02;13.80;99.90
21318;DHT22;10818;50.830;6.524;2022-10-16T02:28:04;13.80;99.90
21318;DHT22;10818;50.830;6.524;2022-10-16T02:33:07;14.00;99.90
21318;DHT22;10818;50.830;6.524;2022-10-16T02:38:08;14.10;99.90
21318;DHT22;10818;50.830;6.524;2022-10-16T02:43:09;14.20;99.90
21318;DHT22;10818;50.830;6.524;2022-10-16T02:48:10;14.20;99.90
21318;DHT22;10818;50.830;6.524;2022-10-16T02:53:10;14.00;99.90
21318;DHT22;10818;50.830;6.524;2022-10-16T02:58:10;14.00;99.90
21318;DHT22;10818;50.830;6.524;2022-10-16T03:03:11;13.90;99.90
21318;DHT22;10818;50.830;6.524;2022-10-16T03:08:12;13.90;99.90
21318;DHT22;10818;50.830;6.524;2022-10-16T03:13:12;13.80;99.90
21318;DHT22;10818;50.830;6.524;2022-10-16T03:18:13;13.80;99.90
21318;DHT22;10818;50.830;6.524;2022-10-16T03:23:13;13.80;99.90
21318;DHT22;10818;50.830;6.524;2022-10-16T03:28:14;13.80;99.90
21318;DHT22;10818;50.830;6.524;2022-10-16T03:33:14;13.80;99.90
21318;DHT22;10818;50.830;6.524;2022-10-16T03:38:14;13.90;99.90
21318;DHT22;10818;50.830;6.524;2022-10-16T03:43:15;13.90;99.90
21318;DHT22;10818;50.830;6.524;2022-10-16T03:48:15;13.90;99.90
21318;DHT22;10818;50.830;6.524;2022-10-16T03:53:16;13.90;99.90
21318;DHT22;10818;50.830;6.524;2022-10-16T03:58:16;13.90;99.90
21318;DHT22;10818;50.830;6.524;2022-10-16T04:03:17;14.00;99.90
21318;DHT22;10818;50.830;6.524;2022-10-16T04:08:19;14.00;99.90
21318;DHT22;10818;50.830;6.524;2022-10-16T04:13:19;14.00;99.90
21318;DHT22;10818;50.830;6.524;2022-10-16T04:18:20;13.90;99.90
21318;DHT22;10818;50.830;6.524;2022-10-16T04:23:20;13.70;99.90
21318;DHT22;10818;50.830;6.524;2022-10-16T04:28:21;13.80;99.90
21318;DHT22;10818;50.830;6.524;2022-10-16T04:33:21;13.70;99.90
21318;DHT22;10818;50.830;6.524;2022-10-16T04:38:22;13.60;99.90
21318;DHT22;10818;50.830;6.524;2022-10-16T04:43:22;13.50;99.90
21318;DHT22;10818;50.830;6.524;2022-10-16T04:48:23;13.30;99.90
21318;DHT22;10818;50.830;6.524;2022-10-16T04:53:23;13.30;99.90
21318;DHT22;10818;50.830;6.524;2022-10-16T04:58:23;13.30;99.90
21318;DHT22;10818;50.830;6.524;2022-10-16T05:03:24;13.30;99.90
21318;DHT22;10818;50.830;6.524;2022-10-16T05:08:24;13.20;99.90
21318;DHT22;10818;50.830;6.524;2022-10-16T05:13:25;13.20;99.90
21318;DHT22;10818;50.830;6.524;2022-10-16T05:18:25;13.10;99.90
21318;DHT22;10818;50.830;6.524;2022-10-16T05:23:26;12.90;99.90
21318;DHT22;10818;50.830;6.524;2022-10-16T05:28:27;12.90;99.90
21318;DHT22;10818;50.830;6.524;2022-10-16T05:33:28;12.70;99.90
21318;DHT22;10818;50.830;6.524;2022-10-16T05:38:28;12.60;99.90
21318;DHT22;10818;50.830;6.524;2022-10-16T05:43:29;12.70;99.90
21318;DHT22;10818;50.830;6.524;2022-10-16T05:48:29;12.50;99.90
21318;DHT22;10818;50.830;6.524;2022-10-16T05:53:30;12.50;99.90
21318;DHT22;10818;50.830;6.524;2022-10-16T05:58:32;12.40;99.90
21318;DHT22;10818;50.830;6.524;2022-10-16T06:03:34;12.30;99.90
21318;DHT22;10818;50.830;6.524;2022-10-16T06:08:34;12.30;99.90
21318;DHT22;10818;50.830;6.524;2022-10-16T06:13:34;12.40;99.90
21318;DHT22;10818;50.830;6.524;2022-10-16T06:18:35;12.50;99.90
21318;DHT22;10818;50.830;6.524;2022-10-16T06:23:35;12.70;99.90
21318;DHT22;10818;50.830;6.524;2022-10-16T06:28:36;12.80;99.90
21318;DHT22;10818;50.830;6.524;2022-10-16T06:33:37;12.90;99.90
21318;DHT22;10818;50.830;6.524;2022-10-16T06:38:38;13.10;99.90
21318;DHT22;10818;50.830;6.524;2022-10-16T06:43:38;13.30;99.90
21318;DHT22;10818;50.830;6.524;2022-10-16T06:48:39;13.40;99.90
21318;DHT22;10818;50.830;6.524;2022-10-16T06:53:40;13.60;99.90
21318;DHT22;10818;50.830;6.524;2022-10-16T06:58:41;13.80;99.90
21318;DHT22;10818;50.830;6.524;2022-10-16T07:03:42;14.10;99.90
21318;DHT22;10818;50.830;6.524;2022-10-16T07:08:43;14.50;99.90
21318;DHT22;10818;50.830;6.524;2022-10-16T07:13:45;14.90;99.90
21318;DHT22;10818;50.830;6.524;2022-10-16T07:18:46;15.10;99.90
21318;DHT22;10818;50.830;6.524;2022-10-16T07:23:52;15.30;99.90
21318;DHT22;10818;50.830;6.524;2022-10-16T07:28:53;15.40;99.90
21318;DHT22;10818;50.830;6.524;2022-10-16T07:33:53;15.60;99.90
21318;DHT22;10818;50.830;6.524;2022-10-16T07:38:54;15.70;99.90
21318;DHT22;10818;50.830;6.524;2022-10-16T07:43:55;15.80;99.90
21318;DHT22;10818;50.830;6.524;2022-10-16T07:48:57;16.00;99.90
21318;DHT22;10818;50.830;6.524;2022-10-16T07:53:57;16.40;99.90
21318;DHT22;10818;50.830;6.524;2022-10-16T07:58:58;17.60;99.90
21318;DHT22;10818;50.830;6.524;2022-10-16T08:03:59;19.10;99.90
21318;DHT22;10818;50.830;6.524;2022-10-16T08:08:59;23.70;99.90
21318;DHT22;10818;50.830;6.524;2022-10-16T08:14:00;30.10;99.90
21318;DHT22;10818;50.830;6.524;2022-10-16T08:19:00;33.40;97.10
21318;DHT22;10818;50.830;6.524;2022-10-16T08:24:01;34.10;91.90
21318;DHT22;10818;50.830;6.524;2022-10-16T08:29:01;35.70;85.70
21318;DHT22;10818;50.830;6.524;2022-10-16T08:34:02;35.30;81.00
21318;DHT22;10818;50.830;6.524;2022-10-16T08:39:02;35.10;78.30
21318;DHT22;10818;50.830;6.524;2022-10-16T08:44:22;34.90;75.30
21318;DHT22;10818;50.830;6.524;2022-10-16T08:49:26;34.40;76.60
21318;DHT22;10818;50.830;6.524;2022-10-16T08:54:37;35.10;73.90
21318;DHT22;10818;50.830;6.524;2022-10-16T08:59:40;31.90;79.30
21318;DHT22;10818;50.830;6.524;2022-10-16T09:04:44;28.40;87.40
21318;DHT22;10818;50.830;6.524;2022-10-16T09:10:06;26.10;93.30
21318;DHT22;10818;50.830;6.524;2022-10-16T09:15:24;24.40;96.10
21318;DHT22;10818;50.830;6.524;2022-10-16T09:20:38;23.20;99.90
21318;DHT22;10818;50.830;6.524;2022-10-16T09:25:42;22.60;99.90
21318;DHT22;10818;50.830;6.524;2022-10-16T09:30:43;22.20;99.90
21318;DHT22;10818;50.830;6.524;2022-10-16T09:35:45;21.60;99.90
21318;DHT22;10818;50.830;6.524;2022-10-16T09:40:46;21.50;99.90
21318;DHT22;10818;50.830;6.524;2022-10-16T09:45:53;21.30;99.90
21318;DHT22;10818;50.830;6.524;2022-10-16T09:50:56;21.20;99.90
21318;DHT22;10818;50.830;6.524;2022-10-16T09:55:56;21.30;99.90
21318;DHT22;10818;50.830;6.524;2022-10-16T10:00:57;21.20;99.90
21318;DHT22;10818;50.830;6.524;2022-10-16T10:05:57;21.10;99.90
21318;DHT22;10818;50.830;6.524;2022-10-16T10:10:58;21.40;99.90
21318;DHT22;10818;50.830;6.524;2022-10-16T10:15:58;21.70;99.90
21318;DHT22;10818;50.830;6.524;2022-10-16T10:20:59;21.90;99.90
21318;DHT22;10818;50.830;6.524;2022-10-16T10:26:08;21.80;99.90
21318;DHT22;10818;50.830;6.524;2022-10-16T10:36:37;22.00;99.90
21318;DHT22;10818;50.830;6.524;2022-10-16T10:51:49;22.30;99.90
21318;DHT22;10818;50.830;6.524;2022-10-16T10:56:57;22.40;99.90
21318;DHT22;10818;50.830;6.524;2022-10-16T11:07:20;22.00;99.90
21318;DHT22;10818;50.830;6.524;2022-10-16T11:12:24;21.80;99.90
21318;DHT22;10818;50.830;6.524;2022-10-16T11:17:27;22.00;99.90
21318;DHT22;10818;50.830;6.524;2022-10-16T11:22:30;22.10;99.90
21318;DHT22;10818;50.830;6.524;2022-10-16T11:27:35;22.30;99.90
21318;DHT22;10818;50.830;6.524;2022-10-16T11:32:49;22.40;99.90
21318;DHT22;10818;50.830;6.524;2022-10-16T11:37:51;22.40;99.90
21318;DHT22;10818;50.830;6.524;2022-10-16T11:48:21;22.70;99.90
21318;DHT22;10818;50.830;6.524;2022-10-16T11:58:54;22.80;99.90
21318;DHT22;10818;50.830;6.524;2022-10-16T12:08:59;23.20;99.90
21318;DHT22;10818;50.830;6.524;2022-10-16T12:14:04;23.20;99.90
21318;DHT22;10818;50.830;6.524;2022-10-16T12:19:10;23.10;99.90
21318;DHT22;10818;50.830;6.524;2022-10-16T12:24:19;23.20;99.90
21318;DHT22;10818;50.830;6.524;2022-10-16T12:29:23;23.00;99.90
21318;DHT22;10818;50.830;6.524;2022-10-16T12:39:27;22.80;99.90
21318;DHT22;10818;50.830;6.524;2022-10-16T12:44:31;22.80;99.90
21318;DHT22;10818;50.830;6.524;2022-10-16T12:49:47;22.80;99.90
21318;DHT22;10818;50.830;6.524;2022-10-16T12:54:48;22.60;99.90
21318;DHT22;10818;50.830;6.524;2022-10-16T13:05:02;22.40;99.90
21318;DHT22;10818;50.830;6.524;2022-10-16T13:10:18;22.10;99.90
21318;DHT22;10818;50.830;6.524;2022-10-16T13:20:34;21.90;99.90
21318;DHT22;10818;50.830;6.524;2022-10-16T13:25:58;22.10;99.90
21318;DHT22;10818;50.830;6.524;2022-10-16T13:31:01;21.80;99.90
21318;DHT22;10818;50.830;6.524;2022-10-16T13:36:01;21.30;99.90
21318;DHT22;10818;50.830;6.524;2022-10-16T13:41:03;21.70;99.90
21318;DHT22;10818;50.830;6.524;2022-10-16T13:46:06;21.30;99.90
21318;DHT22;10818;50.830;6.524;2022-10-16T13:51:14;21.30;99.90
21318;DHT22;10818;50.830;6.524;2022-10-16T13:56:15;21.30;99.90
21318;DHT22;10818;50.830;6.524;2022-10-16T14:01:27;21.30;99.90
21318;DHT22;10818;50.830;6.524;2022-10-16T14:06:28;21.30;99.90
21318;DHT22;10818;50.830;6.524;2022-10-16T14:11:28;21.30;99.90
21318;DHT22;10818;50.830;6.524;2022-10-16T14:16:30;21.00;99.90
21318;DHT22;10818;50.830;6.524;2022-10-16T14:21:31;20.90;99.90
21318;DHT22;10818;50.830;6.524;2022-10-16T14:26:40;21.10;99.90
21318;DHT22;10818;50.830;6.524;2022-10-16T14:31:41;21.30;99.90
21318;DHT22;10818;50.830;6.524;2022-10-16T14:36:41;21.30;99.90
21318;DHT22;10818;50.830;6.524;2022-10-16T14:41:43;21.60;99.90
21318;DHT22;10818;50.830;6.524;2022-10-16T14:46:45;21.80;99.90
21318;DHT22;10818;50.830;6.524;2022-10-16T14:51:46;21.80;99.90
21318;DHT22;10818;50.830;6.524;2022-10-16T14:56:48;21.70;99.90
21318;DHT22;10818;50.830;6.524;2022-10-16T15:01:49;21.60;99.90
21318;DHT22;10818;50.830;6.524;2022-10-16T15:06:50;21.40;99.90
21318;DHT22;10818;50.830;6.524;2022-10-16T15:11:50;21.40;99.90
21318;DHT22;10818;50.830;6.524;2022-10-16T15:16:51;21.20;99.90
21318;DHT22;10818;50.830;6.524;2022-10-16T15:21:51;21.00;99.90
21318;DHT22;10818;50.830;6.524;2022-10-16T15:26:52;20.80;99.90
21318;DHT22;10818;50.830;6.524;2022-10-16T15:31:52;20.70;99.90
21318;DHT22;10818;50.830;6.524;2022-10-16T15:36:53;20.50;99.90
21318;DHT22;10818;50.830;6.524;2022-10-16T15:41:55;20.50;99.90
21318;DHT22;10818;50.830;6.524;2022-10-16T15:46:55;20.40;99.90
21318;DHT22;10818;50.830;6.524;2022-10-16T15:51:56;20.20;99.90
21318;DHT22;10818;50.830;6.524;2022-10-16T15:56:57;20.10;99.90
21318;DHT22;10818;50.830;6.524;2022-10-16T16:01:58;20.00;99.90
21318;DHT22;10818;50.830;6.524;2022-10-16T16:06:58;20.00;99.90
21318;DHT22;10818;50.830;6.524;2022-10-16T16:11:59;19.90;99.90
21318;DHT22;10818;50.830;6.524;2022-10-16T16:17:01;19.80;99.90
21318;DHT22;10818;50.830;6.524;2022-10-16T16:22:02;19.70;99.90
21318;DHT22;10818;50.830;6.524;2022-10-16T16:27:02;19.60;99.90
21318;DHT22;10818;50.830;6.524;2022-10-16T16:32:03;19.50;99.90
21318;DHT22;10818;50.830;6.524;2022-10-16T16:37:03;19.30;99.90
21318;DHT22;10818;50.830;6.524;2022-10-16T16:42:04;19.20;99.90
21318;DHT22;10818;50.830;6.524;2022-10-16T16:47:06;19.10;99.90
21318;DHT22;10818;50.830;6.524;2022-10-16T16:52:06;19.00;99.90
21318;DHT22;10818;50.830;6.524;2022-10-16T16:57:07;18.90;99.90
21318;DHT22;10818;50.830;6.524;2022-10-16T17:02:08;18.90;99.90
21318;DHT22;10818;50.830;6.524;2022-10-16T17:07:08;18.80;99.90
21318;DHT22;10818;50.830;6.524;2022-10-16T17:12:09;18.80;99.90
21318;DHT22;10818;50.830;6.524;2022-10-16T17:17:09;18.80;99.90
21318;DHT22;10818;50.830;6.524;2022-10-16T17:22:10;18.70;99.90
21318;DHT22;10818;50.830;6.524;2022-10-16T17:27:10;18.70;99.90
21318;DHT22;10818;50.830;6.524;2022-10-16T17:32:11;18.70;99.90
21318;DHT22;10818;50.830;6.524;2022-10-16T17:37:12;18.70;99.90
21318;DHT22;10818;50.830;6.524;2022-10-16T17:42:12;18.60;99.90
21318;DHT22;10818;50.830;6.524;2022-10-16T17:47:13;18.50;99.90
21318;DHT22;10818;50.830;6.524;2022-10-16T17:52:13;18.50;99.90
21318;DHT22;10818;50.830;6.524;2022-10-16T17:57:13;18.50;99.90
21318;DHT22;10818;50.830;6.524;2022-10-16T18:02:14;18.50;99.90
21318;DHT22;10818;50.830;6.524;2022-10-16T18:07:15;18.50;99.90
21318;DHT22;10818;50.830;6.524;2022-10-16T18:12:15;18.50;99.90
21318;DHT22;10818;50.830;6.524;2022-10-16T18:17:16;18.40;99.90
21318;DHT22;10818;50.830;6.524;2022-10-16T18:22:18;18.30;99.90
21318;DHT22;10818;50.830;6.524;2022-10-16T18:27:19;18.40;99.90
21318;DHT22;10818;50.830;6.524;2022-10-16T18:32:19;18.40;99.90
21318;DHT22;10818;50.830;6.524;2022-10-16T18:37:19;18.30;99.90
21318;DHT22;10818;50.830;6.524;2022-10-16T18:42:20;18.20;99.90
21318;DHT22;10818;50.830;6.524;2022-10-16T18:47:20;18.30;99.90
21318;DHT22;10818;50.830;6.524;2022-10-16T18:52:21;18.30;99.90
21318;DHT22;10818;50.830;6.524;2022-10-16T18:57:23;18.30;99.90
21318;DHT22;10818;50.830;6.524;2022-10-16T19:02:23;18.20;99.90
21318;DHT22;10818;50.830;6.524;2022-10-16T19:07:24;18.20;99.90
21318;DHT22;10818;50.830;6.524;2022-10-16T19:12:24;18.20;99.90
21318;DHT22;10818;50.830;6.524;2022-10-16T19:17:25;18.10;99.90
21318;DHT22;10818;50.830;6.524;2022-10-16T19:22:25;18.10;99.90
21318;DHT22;10818;50.830;6.524;2022-10-16T19:27:50;18.20;99.90
21318;DHT22;10818;50.830;6.524;2022-10-16T19:32:51;18.00;99.90
21318;DHT22;10818;50.830;6.524;2022-10-16T19:37:52;17.90;99.90
21318;DHT22;10818;50.830;6.524;2022-10-16T19:42:52;17.80;99.90
21318;DHT22;10818;50.830;6.524;2022-10-16T19:47:53;17.60;99.90
21318;DHT22;10818;50.830;6.524;2022-10-16T19:52:54;17.70;99.90
21318;DHT22;10818;50.830;6.524;2022-10-16T19:57:54;17.70;99.90
21318;DHT22;10818;50.830;6.524;2022-10-16T20:02:55;17.60;99.90
21318;DHT22;10818;50.830;6.524;2022-10-16T20:07:55;17.70;99.90
21318;DHT22;10818;50.830;6.524;2022-10-16T20:12:56;17.60;99.90
21318;DHT22;10818;50.830;6.524;2022-10-16T20:17:56;17.40;99.90
21318;DHT22;10818;50.830;6.524;2022-10-16T20:22:57;17.50;99.90
21318;DHT22;10818;50.830;6.524;2022-10-16T20:27:57;17.60;99.90
21318;DHT22;10818;50.830;6.524;2022-10-16T20:32:58;17.40;99.90
21318;DHT22;10818;50.830;6.524;2022-10-16T20:37:58;17.40;99.90
21318;DHT22;10818;50.830;6.524;2022-10-16T20:42:58;17.20;99.90
21318;DHT22;10818;50.830;6.524;2022-10-16T20:47:59;17.10;99.90
21318;DHT22;10818;50.830;6.524;2022-10-16T20:52:59;17.00;99.90
21318;DHT22;10818;50.830;6.524;2022-10-16T20:58:00;16.90;99.90
21318;DHT22;10818;50.830;6.524;2022-10-16T21:03:00;16.90;99.90
21318;DHT22;10818;50.830;6.524;2022-10-16T21:08:01;16.80;99.90
21318;DHT22;10818;50.830;6.524;2022-10-16T21:13:01;16.90;99.90
21318;DHT22;10818;50.830;6.524;2022-10-16T21:18:02;16.90;99.90
21318;DHT22;10818;50.830;6.524;2022-10-16T21:23:03;16.80;99.90
21318;DHT22;10818;50.830;6.524;2022-10-16T21:28:03;16.60;99.90
21318;DHT22;10818;50.830;6.524;2022-10-16T21:33:04;16.50;99.90
21318;DHT22;10818;50.830;6.524;2022-10-16T21:38:04;16.30;99.90
21318;DHT22;10818;50.830;6.524;2022-10-16T21:43:06;16.10;99.90
21318;DHT22;10818;50.830;6.524;2022-10-16T21:48:07;16.00;99.90
21318;DHT22;10818;50.830;6.524;2022-10-16T21:53:07;16.10;99.90
21318;DHT22;10818;50.830;6.524;2022-10-16T21:58:07;16.10;99.90
21318;DHT22;10818;50.830;6.524;2022-10-16T22:03:08;16.10;99.90
21318;DHT22;10818;50.830;6.524;2022-10-16T22:08:08;16.10;99.90
21318;DHT22;10818;50.830;6.524;2022-10-16T22:13:09;16.00;99.90
21318;DHT22;10818;50.830;6.524;2022-10-16T22:18:09;16.00;99.90
21318;DHT22;10818;50.830;6.524;2022-10-16T22:23:10;15.90;99.90
21318;DHT22;10818;50.830;6.524;2022-10-16T22:28:10;15.90;99.90
21318;DHT22;10818;50.830;6.524;2022-10-16T22:33:10;15.70;99.90
21318;DHT22;10818;50.830;6.524;2022-10-16T22:38:11;15.50;99.90
21318;DHT22;10818;50.830;6.524;2022-10-16T22:43:12;15.50;99.90
21318;DHT22;10818;50.830;6.524;2022-10-16T22:48:12;15.50;99.90
21318;DHT22;10818;50.830;6.524;2022-10-16T22:53:12;15.50;99.90
21318;DHT22;10818;50.830;6.524;2022-10-16T22:58:13;15.50;99.90
21318;DHT22;10818;50.830;6.524;2022-10-16T23:03:13;15.60;99.90
21318;DHT22;10818;50.830;6.524;2022-10-16T23:08:14;15.50;99.90
21318;DHT22;10818;50.830;6.524;2022-10-16T23:13:14;15.60;99.90
21318;DHT22;10818;50.830;6.524;2022-10-16T23:18:15;15.60;99.90
21318;DHT22;10818;50.830;6.524;2022-10-16T23:23:15;15.70;99.90
21318;DHT22;10818;50.830;6.524;2022-10-16T23:28:15;15.60;99.90
21318;DHT22;10818;50.830;6.524;2022-10-16T23:33:16;15.70;99.90
21318;DHT22;10818;50.830;6.524;2022-10-16T23:38:16;15.70;99.90
21318;DHT22;10818;50.830;6.524;2022-10-16T23:43:17;15.70;99.90
21318;DHT22;10818;50.830;6.524;2022-10-16T23:48:17;15.70;99.90
21318;DHT22;10818;50.830;6.524;2022-10-16T23:53:18;15.80;99.90
21318;DHT22;10818;50.830;6.524;2022-10-16T23:58:18;15.90;99.90
